sensor_id;sensor_type;location;lat;lon;timestamp;pressure;altitude;pressure_sealevel;temperature;humidity
19736;BME280;32064;49.310;8.646;2023-02-12T00:00:04;102618.31;;;9.59;65.66
19736;BME280;32064;49.310;8.646;2023-02-12T00:02:31;102611.25;;;9.61;66.08
19736;BME280;32064;49.310;8.646;2023-02-12T00:04:56;102620.00;;;9.62;65.64
19736;BME280;32064;49.310;8.646;2023-02-12T00:07:21;102620.81;;;9.64;65.60
19736;BME280;32064;49.310;8.646;2023-02-12T00:09:47;102613.84;;;9.63;66.83
19736;BME280;32064;49.310;8.646;2023-02-12T00:12:12;102621.78;;;9.61;66.76
19736;BME280;32064;49.310;8.646;2023-02-12T00:14:38;102619.09;;;9.63;66.99
19736;BME280;32064;49.310;8.646;2023-02-12T00:17:06;102621.78;;;9.61;66.06
19736;BME280;32064;49.310;8.646;2023-02-12T00:19:31;102615.56;;;9.64;66.61
19736;BME280;32064;49.310;8.646;2023-02-12T00:22:00;102621.78;;;9.61;66.42
19736;BME280;32064;49.310;8.646;2023-02-12T00:24:25;102616.59;;;9.58;66.57
19736;BME280;32064;49.310;8.646;2023-02-12T00:26:52;102622.72;;;9.59;65.86
19736;BME280;32064;49.310;8.646;2023-02-12T00:29:17;102609.63;;;9.57;66.67
19736;BME280;32064;49.310;8.646;2023-02-12T00:31:45;102622.81;;;9.56;66.20
19736;BME280;32064;49.310;8.646;2023-02-12T00:34:11;102623.66;;;9.56;66.07
19736;BME280;32064;49.310;8.646;2023-02-12T00:36:36;102629.75;;;9.58;65.84
19736;BME280;32064;49.310;8.646;2023-02-12T00:39:02;102634.97;;;9.60;66.52
19736;BME280;32064;49.310;8.646;2023-02-12T00:41:28;102618.31;;;9.59;67.27
19736;BME280;32064;49.310;8.646;2023-02-12T00:43:54;102617.53;;;9.57;66.10
19736;BME280;32064;49.310;8.646;2023-02-12T00:46:19;102617.53;;;9.57;67.12
19736;BME280;32064;49.310;8.646;2023-02-12T00:48:45;102621.09;;;9.55;66.79
19736;BME280;32064;49.310;8.646;2023-02-12T00:51:11;102625.53;;;9.53;66.07
19736;BME280;32064;49.310;8.646;2023-02-12T00:53:37;102629.06;;;9.52;66.34
19736;BME280;32064;49.310;8.646;2023-02-12T00:56:03;102633.38;;;9.54;66.78
19736;BME280;32064;49.310;8.646;2023-02-12T00:58:29;102638.56;;;9.56;66.29
19736;BME280;32064;49.310;8.646;2023-02-12T01:00:54;102644.69;;;9.56;66.00
19736;BME280;32064;49.310;8.646;2023-02-12T01:03:20;102645.63;;;9.54;66.92
19736;BME280;32064;49.310;8.646;2023-02-12T01:05:48;102644.84;;;9.52;66.54
19736;BME280;32064;49.310;8.646;2023-02-12T01:08:15;102641.28;;;9.53;66.20
19736;BME280;32064;49.310;8.646;2023-02-12T01:10:41;102645.69;;;9.52;67.27
19736;BME280;32064;49.310;8.646;2023-02-12T01:13:08;102648.41;;;9.49;67.81
19736;BME280;32064;49.310;8.646;2023-02-12T01:15:33;102644.03;;;9.48;67.92
19736;BME280;32064;49.310;8.646;2023-02-12T01:17:59;102641.28;;;9.53;66.85
19736;BME280;32064;49.310;8.646;2023-02-12T01:20:25;102629.06;;;9.52;68.02
19736;BME280;32064;49.310;8.646;2023-02-12T01:22:50;102632.47;;;9.55;66.68
19736;BME280;32064;49.310;8.646;2023-02-12T01:25:19;102643.84;;;9.56;67.49
19736;BME280;32064;49.310;8.646;2023-02-12T01:27:44;102647.31;;;9.56;66.59
19736;BME280;32064;49.310;8.646;2023-02-12T01:30:12;102639.50;;;9.55;67.28
19736;BME280;32064;49.310;8.646;2023-02-12T01:32:37;102642.97;;;9.55;67.13
19736;BME280;32064;49.310;8.646;2023-02-12T01:35:07;102638.63;;;9.54;67.85
19736;BME280;32064;49.310;8.646;2023-02-12T01:37:35;102637.72;;;9.55;67.68
19736;BME280;32064;49.310;8.646;2023-02-12T01:40:02;102642.97;;;9.55;67.97
19736;BME280;32064;49.310;8.646;2023-02-12T01:42:28;102634.16;;;9.58;67.52
19736;BME280;32064;49.310;8.646;2023-02-12T01:47:41;102628.06;;;9.56;67.41
19736;BME280;32064;49.310;8.646;2023-02-12T01:50:09;102635.09;;;9.55;67.95
19736;BME280;32064;49.310;8.646;2023-02-12T01:52:37;102628.91;;;9.56;66.88
19736;BME280;32064;49.310;8.646;2023-02-12T01:55:06;102616.78;;;9.52;67.63
19736;BME280;32064;49.310;8.646;2023-02-12T01:57:35;102622.00;;;9.54;67.17
19736;BME280;32064;49.310;8.646;2023-02-12T02:00:05;102620.19;;;9.56;68.13
19736;BME280;32064;49.310;8.646;2023-02-12T02:02:31;102620.19;;;9.56;68.31
19736;BME280;32064;49.310;8.646;2023-02-12T02:05:00;102622.00;;;9.54;68.26
19736;BME280;32064;49.310;8.646;2023-02-12T02:07:27;102619.22;;;9.58;67.13
19736;BME280;32064;49.310;8.646;2023-02-12T02:09:53;102615.75;;;9.58;68.36
19736;BME280;32064;49.310;8.646;2023-02-12T02:12:18;102617.53;;;9.57;67.36
19736;BME280;32064;49.310;8.646;2023-02-12T02:15:03;102623.66;;;9.56;67.64
19736;BME280;32064;49.310;8.646;2023-02-12T02:34:16;102621.28;;;9.49;67.89
19736;BME280;32064;49.310;8.646;2023-02-12T02:36:58;102616.16;;;9.44;67.65
19736;BME280;32064;49.310;8.646;2023-02-12T02:44:43;102618.78;;;9.44;68.97
19736;BME280;32064;49.310;8.646;2023-02-12T02:47:16;102616.97;;;9.46;69.18
19736;BME280;32064;49.310;8.646;2023-02-12T02:49:46;102618.69;;;9.47;68.74
19736;BME280;32064;49.310;8.646;2023-02-12T02:52:17;102621.31;;;9.47;68.19
19736;BME280;32064;49.310;8.646;2023-02-12T02:54:47;102617.78;;;9.48;68.05
19736;BME280;32064;49.310;8.646;2023-02-12T02:57:22;102611.66;;;9.48;68.72
19736;BME280;32064;49.310;8.646;2023-02-12T02:59:54;102618.66;;;9.49;69.67
19736;BME280;32064;49.310;8.646;2023-02-12T03:02:23;102620.47;;;9.47;68.29
19736;BME280;32064;49.310;8.646;2023-02-12T03:05:11;102620.59;;;9.42;69.35
19736;BME280;32064;49.310;8.646;2023-02-12T03:07:40;102617.00;;;9.44;68.09
19736;BME280;32064;49.310;8.646;2023-02-12T03:10:16;102618.81;;;9.42;69.29
19736;BME280;32064;49.310;8.646;2023-02-12T03:13:00;102619.69;;;9.43;69.35
19736;BME280;32064;49.310;8.646;2023-02-12T03:15:39;102614.44;;;9.43;69.34
19736;BME280;32064;49.310;8.646;2023-02-12T03:18:20;102614.44;;;9.43;68.18
19736;BME280;32064;49.310;8.646;2023-02-12T03:20:54;102614.44;;;9.43;68.92
19736;BME280;32064;49.310;8.646;2023-02-12T03:23:28;102615.34;;;9.42;68.73
19736;BME280;32064;49.310;8.646;2023-02-12T03:26:04;102627.63;;;9.41;69.31
19736;BME280;32064;49.310;8.646;2023-02-12T03:28:33;102617.88;;;9.45;69.03
19736;BME280;32064;49.310;8.646;2023-02-12T03:34:13;102615.44;;;9.39;69.14
19736;BME280;32064;49.310;8.646;2023-02-12T03:36:51;102625.06;;;9.38;69.41
19736;BME280;32064;49.310;8.646;2023-02-12T03:39:53;102621.72;;;9.33;69.43
19736;BME280;32064;49.310;8.646;2023-02-12T03:42:46;102619.34;;;9.26;69.47
19736;BME280;32064;49.310;8.646;2023-02-12T03:47:49;102612.25;;;9.28;69.41
19736;BME280;32064;49.310;8.646;2023-02-12T03:50:33;102609.69;;;9.26;69.85
19736;BME280;32064;49.310;8.646;2023-02-12T03:53:01;102617.47;;;9.29;70.71
19736;BME280;32064;49.310;8.646;2023-02-12T03:55:28;102616.63;;;9.29;70.47
19736;BME280;32064;49.310;8.646;2023-02-12T03:57:57;102612.22;;;9.29;69.95
19736;BME280;32064;49.310;8.646;2023-02-12T04:00:27;102617.28;;;9.35;70.29
19736;BME280;32064;49.310;8.646;2023-02-12T04:02:54;102630.31;;;9.40;70.63
19736;BME280;32064;49.310;8.646;2023-02-12T04:07:48;102625.84;;;9.42;69.37
19736;BME280;32064;49.310;8.646;2023-02-12T04:10:15;102628.44;;;9.43;69.90
19736;BME280;32064;49.310;8.646;2023-02-12T04:13:09;102635.56;;;9.40;70.11
19736;BME280;32064;49.310;8.646;2023-02-12T04:21:11;102626.94;;;9.35;70.18
19736;BME280;32064;49.310;8.646;2023-02-12T04:24:00;102635.69;;;9.35;70.19
19736;BME280;32064;49.310;8.646;2023-02-12T04:26:41;102634.00;;;9.33;69.15
19736;BME280;32064;49.310;8.646;2023-02-12T04:29:29;102643.66;;;9.32;70.36
19736;BME280;32064;49.310;8.646;2023-02-12T04:32:20;102640.25;;;9.29;70.44
19736;BME280;32064;49.310;8.646;2023-02-12T04:34:56;102640.38;;;9.24;69.55
19736;BME280;32064;49.310;8.646;2023-02-12T04:37:30;102647.50;;;9.19;70.58
19736;BME280;32064;49.310;8.646;2023-02-12T04:39:58;102647.44;;;9.22;70.51
19736;BME280;32064;49.310;8.646;2023-02-12T04:42:27;102644.78;;;9.24;69.83
19736;BME280;32064;49.310;8.646;2023-02-12T04:44:52;102645.59;;;9.26;70.05
19736;BME280;32064;49.310;8.646;2023-02-12T04:47:18;102642.00;;;9.28;69.84
19736;BME280;32064;49.310;8.646;2023-02-12T04:49:43;102643.66;;;9.32;70.65
19736;BME280;32064;49.310;8.646;2023-02-12T04:52:08;102648.84;;;9.34;69.70
19736;BME280;32064;49.310;8.646;2023-02-12T04:54:34;102643.66;;;9.32;69.53
19736;BME280;32064;49.310;8.646;2023-02-12T04:56:59;102640.09;;;9.33;70.78
19736;BME280;32064;49.310;8.646;2023-02-12T04:59:25;102640.06;;;9.35;70.60
19736;BME280;32064;49.310;8.646;2023-02-12T05:01:50;102642.72;;;9.33;70.07
19736;BME280;32064;49.310;8.646;2023-02-12T05:04:17;102644.47;;;9.34;69.99
19736;BME280;32064;49.310;8.646;2023-02-12T05:06:43;102641.78;;;9.36;69.90
19736;BME280;32064;49.310;8.646;2023-02-12T05:09:13;102640.06;;;9.35;69.68
19736;BME280;32064;49.310;8.646;2023-02-12T05:11:39;102637.38;;;9.36;71.00
19736;BME280;32064;49.310;8.646;2023-02-12T05:14:04;102636.63;;;9.33;70.53
19736;BME280;32064;49.310;8.646;2023-02-12T05:16:30;102629.59;;;9.33;71.10
19736;BME280;32064;49.310;8.646;2023-02-12T05:18:55;102631.41;;;9.31;70.78
19736;BME280;32064;49.310;8.646;2023-02-12T05:21:21;102631.47;;;9.30;70.64
19736;BME280;32064;49.310;8.646;2023-02-12T05:23:46;102627.13;;;9.29;70.90
19736;BME280;32064;49.310;8.646;2023-02-12T05:26:17;102637.72;;;9.26;71.91
19736;BME280;32064;49.310;8.646;2023-02-12T05:28:43;102634.19;;;9.25;71.43
19736;BME280;32064;49.310;8.646;2023-02-12T05:31:10;102628.00;;;9.28;71.39
19736;BME280;32064;49.310;8.646;2023-02-12T05:33:37;102625.28;;;9.31;71.00
19736;BME280;32064;49.310;8.646;2023-02-12T05:36:11;102629.75;;;9.29;71.20
19736;BME280;32064;49.310;8.646;2023-02-12T05:38:37;102621.81;;;9.30;71.58
19736;BME280;32064;49.310;8.646;2023-02-12T05:41:04;102628.00;;;9.28;70.96
19736;BME280;32064;49.310;8.646;2023-02-12T05:43:31;102626.41;;;9.22;71.50
19736;BME280;32064;49.310;8.646;2023-02-12T05:46:01;102631.00;;;9.15;70.92
19736;BME280;32064;49.310;8.646;2023-02-12T05:48:30;102634.44;;;9.17;71.54
19736;BME280;32064;49.310;8.646;2023-02-12T05:51:17;102641.59;;;9.11;71.01
19736;BME280;32064;49.310;8.646;2023-02-12T05:53:44;102634.56;;;9.13;70.81
19736;BME280;32064;49.310;8.646;2023-02-12T05:56:24;102638.94;;;9.12;70.96
19736;BME280;32064;49.310;8.646;2023-02-12T05:58:58;102633.72;;;9.11;71.70
19736;BME280;32064;49.310;8.646;2023-02-12T06:01:32;102643.34;;;9.12;71.24
19736;BME280;32064;49.310;8.646;2023-02-12T06:03:59;102653.75;;;9.15;71.77
19736;BME280;32064;49.310;8.646;2023-02-12T06:06:26;102644.16;;;9.14;71.20
19736;BME280;32064;49.310;8.646;2023-02-12T06:08:55;102650.22;;;9.16;71.38
19736;BME280;32064;49.310;8.646;2023-02-12T06:11:27;102648.53;;;9.13;71.96
19736;BME280;32064;49.310;8.646;2023-02-12T06:13:52;102653.78;;;9.13;71.94
19736;BME280;32064;49.310;8.646;2023-02-12T06:16:27;102654.75;;;9.11;71.97
19736;BME280;32064;49.310;8.646;2023-02-12T06:18:54;102654.63;;;9.15;72.02
19736;BME280;32064;49.310;8.646;2023-02-12T06:21:24;102643.28;;;9.13;72.27
19736;BME280;32064;49.310;8.646;2023-02-12T06:23:51;102656.41;;;9.15;71.73
19736;BME280;32064;49.310;8.646;2023-02-12T06:26:17;102653.72;;;9.16;71.02
19736;BME280;32064;49.310;8.646;2023-02-12T06:28:43;102660.66;;;9.19;71.51
19736;BME280;32064;49.310;8.646;2023-02-12T06:31:22;102657.19;;;9.17;71.14
19736;BME280;32064;49.310;8.646;2023-02-12T06:33:49;102665.00;;;9.20;71.08
19736;BME280;32064;49.310;8.646;2023-02-12T06:36:17;102669.44;;;9.18;70.99
19736;BME280;32064;49.310;8.646;2023-02-12T06:38:42;102666.84;;;9.16;71.43
19736;BME280;32064;49.310;8.646;2023-02-12T06:41:08;102668.59;;;9.16;71.44
19736;BME280;32064;49.310;8.646;2023-02-12T06:43:34;102664.28;;;9.13;71.45
19736;BME280;32064;49.310;8.646;2023-02-12T06:46:00;102668.69;;;9.13;71.01
19736;BME280;32064;49.310;8.646;2023-02-12T06:48:26;102668.69;;;9.13;70.52
19736;BME280;32064;49.310;8.646;2023-02-12T06:50:52;102678.34;;;9.12;71.53
19736;BME280;32064;49.310;8.646;2023-02-12T06:53:20;102667.88;;;9.11;70.90
19736;BME280;32064;49.310;8.646;2023-02-12T06:55:47;102673.19;;;9.09;71.11
19736;BME280;32064;49.310;8.646;2023-02-12T06:58:13;102674.13;;;9.07;72.22
19736;BME280;32064;49.310;8.646;2023-02-12T07:00:38;102677.50;;;9.10;71.43
19736;BME280;32064;49.310;8.646;2023-02-12T07:03:04;102672.16;;;9.13;71.15
19736;BME280;32064;49.310;8.646;2023-02-12T07:05:29;102676.50;;;9.16;71.40
19736;BME280;32064;49.310;8.646;2023-02-12T07:07:54;102683.41;;;9.20;71.19
19736;BME280;32064;49.310;8.646;2023-02-12T07:10:20;102685.03;;;9.22;71.56
19736;BME280;32064;49.310;8.646;2023-02-12T07:12:45;102683.34;;;9.21;72.08
19736;BME280;32064;49.310;8.646;2023-02-12T07:15:11;102683.25;;;9.25;71.94
19736;BME280;32064;49.310;8.646;2023-02-12T07:17:37;102684.06;;;9.27;71.15
19736;BME280;32064;49.310;8.646;2023-02-12T07:20:03;102686.63;;;9.30;71.84
19736;BME280;32064;49.310;8.646;2023-02-12T07:22:29;102690.94;;;9.32;71.26
19736;BME280;32064;49.310;8.646;2023-02-12T07:24:54;102686.53;;;9.33;71.96
19736;BME280;32064;49.310;8.646;2023-02-12T07:27:20;102694.44;;;9.31;72.71
19736;BME280;32064;49.310;8.646;2023-02-12T07:29:45;102693.63;;;9.29;73.41
19736;BME280;32064;49.310;8.646;2023-02-12T07:32:13;102693.50;;;9.34;72.81
19736;BME280;32064;49.310;8.646;2023-02-12T07:34:39;102696.13;;;9.34;73.45
19736;BME280;32064;49.310;8.646;2023-02-12T07:37:04;102689.06;;;9.36;73.15
19736;BME280;32064;49.310;8.646;2023-02-12T07:39:31;102688.94;;;9.40;73.13
19736;BME280;32064;49.310;8.646;2023-02-12T07:41:56;102692.44;;;9.41;73.10
19736;BME280;32064;49.310;8.646;2023-02-12T07:44:22;102693.19;;;9.44;73.45
19736;BME280;32064;49.310;8.646;2023-02-12T07:46:48;102700.09;;;9.49;73.42
19736;BME280;32064;49.310;8.646;2023-02-12T07:49:19;102692.94;;;9.54;73.09
19736;BME280;32064;49.310;8.646;2023-02-12T07:51:46;102696.34;;;9.57;72.03
19736;BME280;32064;49.310;8.646;2023-02-12T07:54:12;102701.44;;;9.63;72.26
19736;BME280;32064;49.310;8.646;2023-02-12T07:56:40;102689.16;;;9.64;72.59
19736;BME280;32064;49.310;8.646;2023-02-12T07:59:09;102701.69;;;9.54;72.17
19736;BME280;32064;49.310;8.646;2023-02-12T08:01:54;102704.47;;;9.48;72.56
19736;BME280;32064;49.310;8.646;2023-02-12T08:04:24;102703.31;;;9.58;72.67
19736;BME280;32064;49.310;8.646;2023-02-12T08:06:54;102692.63;;;9.64;71.84
19736;BME280;32064;49.310;8.646;2023-02-12T08:09:25;102703.06;;;9.67;73.31
19736;BME280;32064;49.310;8.646;2023-02-12T08:11:51;102696.72;;;9.75;73.58
19736;BME280;32064;49.310;8.646;2023-02-12T08:14:18;102705.44;;;9.77;72.09
19736;BME280;32064;49.310;8.646;2023-02-12T08:16:45;102705.19;;;9.84;71.86
19736;BME280;32064;49.310;8.646;2023-02-12T08:19:11;102705.97;;;9.88;72.50
19736;BME280;32064;49.310;8.646;2023-02-12T08:21:40;102703.94;;;9.96;72.60
19736;BME280;32064;49.310;8.646;2023-02-12T08:24:05;102705.59;;;10.00;72.35
19736;BME280;32064;49.310;8.646;2023-02-12T08:26:35;102708.16;;;10.02;71.45
19736;BME280;32064;49.310;8.646;2023-02-12T08:29:03;102708.00;;;10.08;73.00
19736;BME280;32064;49.310;8.646;2023-02-12T08:31:31;102714.91;;;10.10;72.80
19736;BME280;32064;49.310;8.646;2023-02-12T08:33:57;102713.97;;;10.13;71.84
19736;BME280;32064;49.310;8.646;2023-02-12T08:36:25;102718.25;;;10.17;73.37
19736;BME280;32064;49.310;8.646;2023-02-12T08:38:52;102716.34;;;10.22;71.56
19736;BME280;32064;49.310;8.646;2023-02-12T08:41:23;102723.31;;;10.23;73.40
19736;BME280;32064;49.310;8.646;2023-02-12T08:43:55;102709.09;;;10.30;72.03
19736;BME280;32064;49.310;8.646;2023-02-12T08:46:24;102717.69;;;10.36;73.10
19736;BME280;32064;49.310;8.646;2023-02-12T08:48:54;102718.50;;;10.38;71.86
19736;BME280;32064;49.310;8.646;2023-02-12T08:51:23;102716.53;;;10.44;71.38
19736;BME280;32064;49.310;8.646;2023-02-12T08:53:55;102721.75;;;10.46;72.51
19736;BME280;32064;49.310;8.646;2023-02-12T08:56:22;102719.09;;;10.47;71.44
19736;BME280;32064;49.310;8.646;2023-02-12T08:58:48;102717.34;;;10.46;71.13
19736;BME280;32064;49.310;8.646;2023-02-12T09:01:17;102722.59;;;10.46;71.33
19736;BME280;32064;49.310;8.646;2023-02-12T09:03:43;102721.75;;;10.46;71.62
19736;BME280;32064;49.310;8.646;2023-02-12T09:06:09;102731.34;;;10.47;72.90
19736;BME280;32064;49.310;8.646;2023-02-12T09:08:36;102725.31;;;10.45;71.45
19736;BME280;32064;49.310;8.646;2023-02-12T09:11:22;102728.03;;;10.42;72.52
19736;BME280;32064;49.310;8.646;2023-02-12T09:13:51;102732.19;;;10.49;71.72
19736;BME280;32064;49.310;8.646;2023-02-12T09:16:17;102734.78;;;10.50;72.69
19736;BME280;32064;49.310;8.646;2023-02-12T09:18:43;102737.34;;;10.52;71.16
19736;BME280;32064;49.310;8.646;2023-02-12T09:21:12;102734.78;;;10.50;71.96
19736;BME280;32064;49.310;8.646;2023-02-12T09:23:39;102733.75;;;10.54;71.74
19736;BME280;32064;49.310;8.646;2023-02-12T09:26:10;102732.84;;;10.55;71.91
19736;BME280;32064;49.310;8.646;2023-02-12T09:28:37;102733.63;;;10.59;72.32
19736;BME280;32064;49.310;8.646;2023-02-12T09:31:08;102742.38;;;10.60;70.67
19736;BME280;32064;49.310;8.646;2023-02-12T09:33:34;102736.91;;;10.66;70.51
19736;BME280;32064;49.310;8.646;2023-02-12T09:36:04;102735.94;;;10.68;71.40
19736;BME280;32064;49.310;8.646;2023-02-12T09:38:31;102737.72;;;10.68;70.96
19736;BME280;32064;49.310;8.646;2023-02-12T09:44:27;102731.53;;;10.69;71.48
19736;BME280;32064;49.310;8.646;2023-02-12T09:47:07;102735.75;;;10.74;72.27
19736;BME280;32064;49.310;8.646;2023-02-12T09:50:09;102732.13;;;10.78;72.50
19736;BME280;32064;49.310;8.646;2023-02-12T09:52:38;102731.09;;;10.83;71.90
19736;BME280;32064;49.310;8.646;2023-02-12T09:55:04;102736.09;;;10.90;71.27
19736;BME280;32064;49.310;8.646;2023-02-12T09:57:35;102732.41;;;10.96;70.59
19736;BME280;32064;49.310;8.646;2023-02-12T10:00:06;102734.00;;;11.00;70.44
19736;BME280;32064;49.310;8.646;2023-02-12T10:02:35;102732.34;;;10.97;71.47
19736;BME280;32064;49.310;8.646;2023-02-12T10:05:05;102740.97;;;11.01;72.39
19736;BME280;32064;49.310;8.646;2023-02-12T10:07:45;102745.97;;;11.10;70.85
19736;BME280;32064;49.310;8.646;2023-02-12T10:12:53;102742.97;;;11.21;71.77
19736;BME280;32064;49.310;8.646;2023-02-12T10:15:48;102741.19;;;11.21;70.78
19736;BME280;32064;49.310;8.646;2023-02-12T10:28:48;102726.44;;;11.41;70.02
19736;BME280;32064;49.310;8.646;2023-02-12T10:33:49;102733.28;;;11.46;69.85
19736;BME280;32064;49.310;8.646;2023-02-12T10:41:37;102718.47;;;11.66;70.50
19736;BME280;32064;49.310;8.646;2023-02-12T10:44:09;102714.75;;;11.72;69.35
19736;BME280;32064;49.310;8.646;2023-02-12T10:46:34;102715.34;;;11.80;69.96
19736;BME280;32064;49.310;8.646;2023-02-12T10:49:00;102705.34;;;11.89;69.87
19736;BME280;32064;49.310;8.646;2023-02-12T10:54:43;102704.72;;;12.05;68.93
19736;BME280;32064;49.310;8.646;2023-02-12T10:57:23;102706.16;;;12.13;69.23
19736;BME280;32064;49.310;8.646;2023-02-12T10:59:52;102702.41;;;12.19;68.19
19736;BME280;32064;49.310;8.646;2023-02-12T11:02:32;102695.88;;;12.29;68.75
19736;BME280;32064;49.310;8.646;2023-02-12T11:05:00;102703.34;;;12.40;69.02
19736;BME280;32064;49.310;8.646;2023-02-12T11:07:48;102698.94;;;12.41;67.28
19736;BME280;32064;49.310;8.646;2023-02-12T11:10:27;102699.78;;;12.41;69.17
19736;BME280;32064;49.310;8.646;2023-02-12T11:12:53;102698.06;;;12.40;68.57
19736;BME280;32064;49.310;8.646;2023-02-12T11:15:23;102692.53;;;12.46;67.45
19736;BME280;32064;49.310;8.646;2023-02-12T11:18:07;102694.97;;;12.51;67.53
19736;BME280;32064;49.310;8.646;2023-02-12T11:20:52;102689.78;;;12.49;68.65
19736;BME280;32064;49.310;8.646;2023-02-12T11:26:39;102690.09;;;12.62;68.46
19736;BME280;32064;49.310;8.646;2023-02-12T11:28:58;102687.59;;;12.59;68.41
19736;BME280;32064;49.310;8.646;2023-02-12T11:31:33;102682.53;;;12.54;67.86
19736;BME280;32064;49.310;8.646;2023-02-12T11:36:41;102679.09;;;12.73;66.60
19736;BME280;32064;49.310;8.646;2023-02-12T11:39:19;102679.63;;;12.81;66.23
19736;BME280;32064;49.310;8.646;2023-02-12T11:41:49;102678.66;;;12.84;66.38
19736;BME280;32064;49.310;8.646;2023-02-12T11:44:27;102676.72;;;12.87;67.08
19736;BME280;32064;49.310;8.646;2023-02-12T11:47:00;102670.06;;;12.99;65.99
19736;BME280;32064;49.310;8.646;2023-02-12T11:49:32;102678.22;;;13.13;65.84
19736;BME280;32064;49.310;8.646;2023-02-12T11:51:59;102665.53;;;13.21;66.77
19736;BME280;32064;49.310;8.646;2023-02-12T11:54:28;102670.06;;;13.19;65.64
19736;BME280;32064;49.310;8.646;2023-02-12T11:56:55;102675.34;;;13.19;65.36
19736;BME280;32064;49.310;8.646;2023-02-12T11:59:36;102666.22;;;13.27;65.02
19736;BME280;32064;49.310;8.646;2023-02-12T12:02:24;102649.22;;;13.32;65.75
19736;BME280;32064;49.310;8.646;2023-02-12T12:05:14;102650.47;;;13.44;65.12
19736;BME280;32064;49.310;8.646;2023-02-12T12:07:45;102654.25;;;13.57;64.05
19736;BME280;32064;49.310;8.646;2023-02-12T12:10:22;102647.63;;;13.67;64.04
19736;BME280;32064;49.310;8.646;2023-02-12T12:12:53;102643.69;;;13.76;64.39
19736;BME280;32064;49.310;8.646;2023-02-12T12:15:29;102639.66;;;13.86;63.76
19736;BME280;32064;49.310;8.646;2023-02-12T12:18:28;102638.50;;;13.92;63.64
19736;BME280;32064;49.310;8.646;2023-02-12T12:21:27;102634.00;;;13.94;63.91
19736;BME280;32064;49.310;8.646;2023-02-12T12:26:42;102635.88;;;13.92;62.71
19736;BME280;32064;49.310;8.646;2023-02-12T12:29:23;102634.88;;;13.76;62.69
19736;BME280;32064;49.310;8.646;2023-02-12T12:32:00;102638.25;;;13.60;63.36
19736;BME280;32064;49.310;8.646;2023-02-12T12:34:27;102629.25;;;13.64;63.51
19736;BME280;32064;49.310;8.646;2023-02-12T12:37:15;102629.59;;;13.76;63.43
19736;BME280;32064;49.310;8.646;2023-02-12T12:51:17;102608.91;;;13.84;62.20
19736;BME280;32064;49.310;8.646;2023-02-12T12:54:06;102608.06;;;14.20;62.71
19736;BME280;32064;49.310;8.646;2023-02-12T12:56:47;102605.19;;;14.07;62.69
19736;BME280;32064;49.310;8.646;2023-02-12T13:10:27;102587.00;;;15.03;60.82
19736;BME280;32064;49.310;8.646;2023-02-12T13:15:19;102586.28;;;15.00;60.14
19736;BME280;32064;49.310;8.646;2023-02-12T13:18:23;102581.53;;;15.22;59.90
19736;BME280;32064;49.310;8.646;2023-02-12T13:21:17;102589.59;;;15.21;59.38
19736;BME280;32064;49.310;8.646;2023-02-12T13:23:54;102584.72;;;15.45;59.77
19736;BME280;32064;49.310;8.646;2023-02-12T13:29:15;102572.31;;;15.61;59.02
19736;BME280;32064;49.310;8.646;2023-02-12T13:31:55;102569.94;;;15.41;58.32
19736;BME280;32064;49.310;8.646;2023-02-12T13:34:26;102577.00;;;15.24;58.22
19736;BME280;32064;49.310;8.646;2023-02-12T13:36:54;102566.41;;;15.56;59.18
19736;BME280;32064;49.310;8.646;2023-02-12T13:39:36;102568.47;;;15.35;58.29
19736;BME280;32064;49.310;8.646;2023-02-12T13:42:07;102565.41;;;15.43;58.96
19736;BME280;32064;49.310;8.646;2023-02-12T13:44:42;102560.59;;;15.97;57.88
19736;BME280;32064;49.310;8.646;2023-02-12T13:47:32;102567.63;;;16.28;57.49
19736;BME280;32064;49.310;8.646;2023-02-12T13:53:12;102568.81;;;15.92;56.22
19736;BME280;32064;49.310;8.646;2023-02-12T13:58:37;102555.53;;;15.92;56.83
19736;BME280;32064;49.310;8.646;2023-02-12T14:01:05;102563.50;;;15.77;56.60
19736;BME280;32064;49.310;8.646;2023-02-12T14:03:37;102552.47;;;15.37;58.30
19736;BME280;32064;49.310;8.646;2023-02-12T14:06:21;102552.84;;;14.97;57.75
19736;BME280;32064;49.310;8.646;2023-02-12T14:08:50;102549.09;;;15.01;58.84
19736;BME280;32064;49.310;8.646;2023-02-12T14:11:19;102555.69;;;14.77;59.02
19736;BME280;32064;49.310;8.646;2023-02-12T14:13:50;102550.41;;;14.77;59.46
19736;BME280;32064;49.310;8.646;2023-02-12T14:16:35;102542.50;;;14.59;59.15
19736;BME280;32064;49.310;8.646;2023-02-12T14:19:39;102546.72;;;14.64;59.34
19736;BME280;32064;49.310;8.646;2023-02-12T14:24:53;102547.50;;;15.15;60.09
19736;BME280;32064;49.310;8.646;2023-02-12T14:27:29;102546.56;;;15.32;59.14
19736;BME280;32064;49.310;8.646;2023-02-12T14:35:42;102538.78;;;15.44;57.84
19736;BME280;32064;49.310;8.646;2023-02-12T14:43:03;102535.34;;;14.95;58.10
19736;BME280;32064;49.310;8.646;2023-02-12T14:45:36;102532.28;;;14.69;59.43
19736;BME280;32064;49.310;8.646;2023-02-12T14:48:03;102534.16;;;14.50;59.24
19736;BME280;32064;49.310;8.646;2023-02-12T14:50:36;102526.44;;;14.28;60.21
19736;BME280;32064;49.310;8.646;2023-02-12T14:53:09;102524.50;;;14.14;60.40
19736;BME280;32064;49.310;8.646;2023-02-12T14:55:47;102525.72;;;13.89;60.46
19736;BME280;32064;49.310;8.646;2023-02-12T14:58:19;102524.41;;;13.81;61.19
19736;BME280;32064;49.310;8.646;2023-02-12T15:00:46;102531.16;;;13.69;61.15
19736;BME280;32064;49.310;8.646;2023-02-12T15:03:18;102516.53;;;13.62;61.62
19736;BME280;32064;49.310;8.646;2023-02-12T15:06:18;102506.94;;;13.59;61.60
19736;BME280;32064;49.310;8.646;2023-02-12T15:08:56;102516.34;;;13.47;62.80
19736;BME280;32064;49.310;8.646;2023-02-12T15:11:49;102514.09;;;13.38;63.52
19736;BME280;32064;49.310;8.646;2023-02-12T15:14:24;102514.66;;;13.28;62.90
19736;BME280;32064;49.310;8.646;2023-02-12T15:16:54;102514.41;;;13.32;62.78